createdAt,value
2023-03-14T00:00:15.002Z,96675.41
2023-03-14T00:02:20.678Z,96677.19
2023-03-14T00:04:25.614Z,96686.09
2023-03-14T00:06:30.866Z,96699.03
2023-03-14T00:08:38.932Z,96706.31
2023-03-14T00:10:44.570Z,96720.59
2023-03-14T00:12:49.765Z,96719.81
2023-03-14T00:14:54.996Z,96718.78
2023-03-14T00:17:00.226Z,96722.88
2023-03-14T00:19:05.606Z,96736.53
2023-03-14T00:21:14.142Z,96736.19
2023-03-14T00:23:19.027Z,96726.75
2023-03-14T00:25:26.533Z,96720.94
2023-03-14T00:27:31.935Z,96717.72
2023-03-14T00:29:36.818Z,96725.94
2023-03-14T00:31:42.821Z,96719.34
2023-03-14T00:33:48.686Z,96716.97
2023-03-14T00:35:59.106Z,96717.72
2023-03-14T00:38:04.641Z,96711.06
2023-03-14T00:40:12.153Z,96706.38
2023-03-14T00:42:20.028Z,96706.03
2023-03-14T00:44:24.957Z,96709.63
2023-03-14T00:46:30.900Z,96706.03
2023-03-14T00:48:36.314Z,96715.91
2023-03-14T00:50:41.476Z,96697.59
2023-03-14T00:52:47.761Z,96697.22
2023-03-14T00:54:52.668Z,96706.31
2023-03-14T00:56:58.022Z,96687.34
2023-03-14T00:59:05.584Z,96685.56
2023-03-14T01:01:12.657Z,96678.75
2023-03-14T01:03:18.914Z,96665.47
2023-03-14T01:05:25.103Z,96677.50
2023-03-14T01:07:30.725Z,96665.81
2023-03-14T01:09:36.810Z,96665.47
2023-03-14T01:11:43.534Z,96664.38
2023-03-14T01:13:49.457Z,96676.59
2023-03-14T01:15:57.429Z,96680.72
2023-03-14T01:18:02.627Z,96679.75
2023-03-14T01:20:10.117Z,96663.84
2023-03-14T01:22:15.915Z,96669.34
2023-03-14T01:24:21.529Z,96666.09
2023-03-14T01:26:29.768Z,96653.88
2023-03-14T01:28:35.426Z,96660.59
2023-03-14T01:30:40.333Z,96658.81
2023-03-14T01:32:48.414Z,96663.66
2023-03-14T01:34:53.685Z,96652.16
2023-03-14T01:36:59.239Z,96658.06
2023-03-14T01:39:05.114Z,96657.00
2023-03-14T01:41:15.625Z,96644.28
2023-03-14T01:43:25.616Z,96645.97
2023-03-14T01:46:24.697Z,96643.91
2023-03-14T01:48:39.541Z,96646.59
2023-03-14T01:50:44.709Z,96648.94
2023-03-14T01:52:54.416Z,96642.44
2023-03-14T01:55:04.466Z,96637.88
2023-03-14T01:57:16.862Z,96632.94
2023-03-14T01:59:22.985Z,96635.66
2023-03-14T02:01:30.017Z,96633.88
2023-03-14T02:03:48.657Z,96632.25
2023-03-14T02:05:54.915Z,96635.84
2023-03-14T02:08:02.478Z,96625.41
2023-03-14T02:10:15.455Z,96618.22
2023-03-14T02:12:24.093Z,96614.81
2023-03-14T02:14:49.190Z,96603.50
2023-03-14T02:17:14.457Z,96597.47
2023-03-14T02:20:02.838Z,96591.63
2023-03-14T02:22:17.406Z,96596.84
2023-03-14T02:24:39.598Z,96594.88
2023-03-14T02:27:08.940Z,96588.34
2023-03-14T02:29:16.809Z,96589.94
2023-03-14T02:31:22.130Z,96596.13
2023-03-14T02:33:28.198Z,96587.88
2023-03-14T02:35:39.012Z,96596.38
2023-03-14T02:37:49.444Z,96595.22
2023-03-14T02:39:54.768Z,96585.03
2023-03-14T02:42:00.010Z,96578.53
2023-03-14T02:44:07.931Z,96563.91
2023-03-14T02:46:16.526Z,96565.63
2023-03-14T02:48:25.281Z,96572.25
2023-03-14T02:50:35.489Z,96571.91
2023-03-14T02:52:40.722Z,96558.44
2023-03-14T02:54:46.188Z,96569.22
2023-03-14T02:56:51.809Z,96568.25
2023-03-14T02:58:58.751Z,96558.28
2023-03-14T03:01:38.690Z,96569.94
2023-03-14T03:03:44.054Z,96570.28
2023-03-14T03:05:54.073Z,96566.16
2023-03-14T03:07:59.364Z,96566.16
2023-03-14T03:10:04.551Z,96552.16
2023-03-14T03:12:10.231Z,96564.66
2023-03-14T03:14:15.161Z,96561.31
2023-03-14T03:16:20.162Z,96567.78
2023-03-14T03:18:27.697Z,96567.69
2023-03-14T03:20:32.677Z,96559.50
2023-03-14T03:22:37.716Z,96564.19
2023-03-14T03:24:42.646Z,96556.66
2023-03-14T03:26:48.088Z,96550.53
2023-03-14T03:28:55.438Z,96568.31
2023-03-14T03:31:02.661Z,96563.31
2023-03-14T03:33:07.728Z,96559.25
2023-03-14T03:35:16.349Z,96542.03
2023-03-14T03:37:21.860Z,96557.38
2023-03-14T03:39:26.919Z,96567.03
2023-03-14T03:41:32.781Z,96566.50
2023-03-14T03:43:38.010Z,96566.50
2023-03-14T03:45:45.241Z,96556.09
2023-03-14T03:47:50.643Z,96572.44
2023-03-14T03:49:55.710Z,96555.13
2023-03-14T03:52:04.195Z,96541.31
2023-03-14T03:54:09.140Z,96557.38
2023-03-14T03:56:14.769Z,96562.41
2023-03-14T03:58:20.995Z,96565.09
2023-03-14T04:00:26.338Z,96579.81
2023-03-14T04:02:31.883Z,96578.66
2023-03-14T04:04:37.162Z,96569.56
2023-03-14T04:06:43.152Z,96583.06
2023-03-14T04:08:50.752Z,96566.25
2023-03-14T04:11:18.217Z,96568.25
2023-03-14T04:13:32.245Z,96563.63
2023-03-14T04:15:37.307Z,96573.28
2023-03-14T04:17:49.632Z,96562.03
2023-03-14T04:19:55.256Z,96558.19
2023-03-14T04:22:07.919Z,96558.47
2023-03-14T04:24:23.937Z,96559.16
2023-03-14T04:26:30.153Z,96563.28
2023-03-14T04:28:37.246Z,96563.22
2023-03-14T04:30:43.587Z,96566.34
2023-03-14T04:32:52.972Z,96562.84
2023-03-14T04:34:59.625Z,96551.16
2023-03-14T04:37:04.917Z,96557.00
2023-03-14T04:39:16.077Z,96559.63
2023-03-14T04:41:32.164Z,96555.56
2023-03-14T04:43:38.278Z,96569.84
2023-03-14T04:45:47.069Z,96549.84
2023-03-14T04:47:53.479Z,96546.31
2023-03-14T04:49:59.113Z,96548.75
2023-03-14T04:52:05.048Z,96550.38
2023-03-14T04:54:12.791Z,96540.31
2023-03-14T04:56:17.756Z,96543.38
2023-03-14T04:58:27.906Z,96549.19
2023-03-14T05:00:35.415Z,96545.16
2023-03-14T05:02:50.622Z,96546.31
2023-03-14T05:05:10.995Z,96543.72
2023-03-14T05:07:41.210Z,96540.13
2023-03-14T05:09:56.043Z,96535.47
2023-03-14T05:12:21.489Z,96529.53
2023-03-14T05:14:36.666Z,96527.03
2023-03-14T05:16:54.881Z,96522.28
2023-03-14T05:19:07.427Z,96526.69
2023-03-14T05:21:18.217Z,96519.16
2023-03-14T05:23:30.702Z,96514.28
2023-03-14T05:25:54.275Z,96516.09
2023-03-14T05:28:13.095Z,96523.91
2023-03-14T05:30:29.370Z,96528.28
2023-03-14T05:33:00.453Z,96521.81
2023-03-14T05:35:21.116Z,96541.56
2023-03-14T05:37:38.828Z,96540.59
2023-03-14T05:40:05.723Z,96523.25
2023-03-14T05:42:17.621Z,96517.53
2023-03-14T05:44:41.203Z,96512.69
2023-03-14T05:47:09.134Z,96505.25
2023-03-14T05:49:14.034Z,96495.13
2023-03-14T05:51:30.369Z,96496.38
2023-03-14T05:53:42.682Z,96492.22
2023-03-14T05:56:07.276Z,96480.75
2023-03-14T05:58:26.181Z,96482.09
2023-03-14T06:00:46.854Z,96481.09
2023-03-14T06:03:14.729Z,96484.53
2023-03-14T06:05:23.676Z,96467.09
2023-03-14T06:07:34.829Z,96463.50
2023-03-14T06:09:42.999Z,96464.56
2023-03-14T06:11:48.268Z,96462.97
2023-03-14T06:13:54.263Z,96461.72
2023-03-14T06:15:59.727Z,96462.78
2023-03-14T06:18:05.143Z,96456.75
2023-03-14T06:20:15.689Z,96465.84
2023-03-14T06:22:21.167Z,96453.97
2023-03-14T06:24:26.381Z,96462.44
2023-03-14T06:26:31.698Z,96459.91
2023-03-14T06:28:36.687Z,96443.09
2023-03-14T06:30:42.907Z,96438.09
2023-03-14T06:32:49.900Z,96453.97
2023-03-14T06:34:56.262Z,96454.91
2023-03-14T06:37:03.876Z,96436.38
2023-03-14T06:39:09.064Z,96454.16
2023-03-14T06:41:17.932Z,96461.50
2023-03-14T06:43:25.525Z,96462.97
2023-03-14T06:45:31.188Z,96457.00
2023-03-14T06:47:39.221Z,96468.69
2023-03-14T06:49:44.383Z,96472.09
2023-03-14T06:51:50.037Z,96480.16
2023-03-14T06:53:57.552Z,96480.97
2023-03-14T06:56:05.662Z,96481.78
2023-03-14T06:58:12.270Z,96484.31
2023-03-14T07:00:22.557Z,96485.19
2023-03-14T07:02:42.182Z,96482.88
2023-03-14T07:04:55.707Z,96500.81
2023-03-14T07:07:01.306Z,96494.56
2023-03-14T07:09:09.090Z,96494.38
2023-03-14T07:11:18.009Z,96493.00
2023-03-14T07:13:23.101Z,96498.84
2023-03-14T07:15:36.792Z,96490.78
2023-03-14T07:17:46.554Z,96489.69
2023-03-14T07:19:51.515Z,96488.09
2023-03-14T07:21:58.389Z,96484.69
2023-03-14T07:24:08.785Z,96488.09
2023-03-14T07:26:14.202Z,96489.28
2023-03-14T07:28:24.710Z,96481.47
2023-03-14T07:30:36.547Z,96494.91
2023-03-14T07:32:48.827Z,96490.97
2023-03-14T07:34:53.922Z,96485.41
2023-03-14T07:36:58.913Z,96485.78
2023-03-14T07:39:05.203Z,96490.25
2023-03-14T07:41:30.411Z,96483.25
2023-03-14T07:43:54.600Z,96489.91
2023-03-14T07:46:00.434Z,96486.50
2023-03-14T07:48:05.625Z,96474.22
2023-03-14T07:50:13.156Z,96481.09
2023-03-14T07:52:18.535Z,96483.06
2023-03-14T07:54:24.698Z,96470.97
2023-03-14T07:56:32.467Z,96486.31
2023-03-14T07:58:37.528Z,96475.09
2023-03-14T08:00:42.762Z,96484.81
2023-03-14T08:02:48.207Z,96480.19
2023-03-14T08:04:53.621Z,96483.59
2023-03-14T08:06:59.030Z,96483.81
2023-03-14T08:09:04.269Z,96489.28
2023-03-14T08:11:11.862Z,96494.47
2023-03-14T08:13:19.920Z,96500.31
2023-03-14T08:15:25.191Z,96501.09
2023-03-14T08:17:30.459Z,96493.09
2023-03-14T08:19:35.361Z,96495.81
2023-03-14T08:21:40.367Z,96499.59
2023-03-14T08:23:45.771Z,96501.38
2023-03-14T08:25:53.704Z,96489.91
2023-03-14T08:27:59.126Z,96488.28
2023-03-14T08:30:07.646Z,96495.63
2023-03-14T08:32:13.190Z,96497.97
2023-03-14T08:34:19.088Z,96497.09
2023-03-14T08:36:24.429Z,96490.38
2023-03-14T08:38:30.309Z,96492.75
2023-03-14T08:40:35.220Z,96487.47
2023-03-14T08:42:40.166Z,96494.72
2023-03-14T08:44:45.419Z,96494.38
2023-03-14T08:46:53.288Z,96495.63
2023-03-14T08:48:58.698Z,96500.13
2023-03-14T08:51:09.707Z,96504.06
2023-03-14T08:53:14.724Z,96498.78
2023-03-14T08:55:19.906Z,96496.69
2023-03-14T08:57:28.388Z,96499.94
2023-03-14T08:59:33.914Z,96496.91
2023-03-14T09:01:38.862Z,96492.06
2023-03-14T09:03:47.408Z,96497.25
2023-03-14T09:05:52.575Z,96498.25
2023-03-14T09:07:57.743Z,96497.97
2023-03-14T09:10:03.049Z,96502.47
2023-03-14T09:12:09.086Z,96503.34
2023-03-14T09:14:15.157Z,96494.38
2023-03-14T09:16:20.181Z,96492.59
2023-03-14T09:18:26.259Z,96507.50
2023-03-14T09:20:34.072Z,96497.91
2023-03-14T09:22:39.244Z,96506.75
2023-03-14T09:24:44.693Z,96505.16
2023-03-14T09:26:49.565Z,96510.97
2023-03-14T09:28:55.953Z,96501.91
2023-03-14T09:31:09.062Z,96505.88
2023-03-14T09:33:14.373Z,96507.41
2023-03-14T09:35:19.824Z,96501.19
2023-03-14T09:37:27.464Z,96507.75
2023-03-14T09:39:32.916Z,96506.94
2023-03-14T09:41:41.642Z,96500.13
2023-03-14T09:43:52.028Z,96506.41
2023-03-14T09:45:57.576Z,96501.44
2023-03-14T09:48:05.043Z,96501.56
2023-03-14T09:50:15.616Z,96508.19
2023-03-14T09:52:25.666Z,96503.31
2023-03-14T09:54:42.743Z,96503.50
2023-03-14T09:56:48.003Z,96506.91
2023-03-14T09:58:57.621Z,96516.78
2023-03-14T10:01:04.563Z,96508.69
2023-03-14T10:03:28.949Z,96507.94
2023-03-14T10:05:34.383Z,96501.00
2023-03-14T10:07:39.312Z,96502.63
2023-03-14T10:09:47.998Z,96511.13
2023-03-14T10:11:53.053Z,96516.44
2023-03-14T10:14:13.629Z,96513.66
2023-03-14T10:16:19.107Z,96506.16
2023-03-14T10:18:29.049Z,96514.25
2023-03-14T10:20:37.548Z,96503.38
2023-03-14T10:22:42.556Z,96504.84
2023-03-14T10:24:57.940Z,96507.22
2023-03-14T10:27:05.788Z,96508.09
2023-03-14T10:29:17.199Z,96510.16
2023-03-14T10:31:28.278Z,96500.88
2023-03-14T10:33:35.926Z,96507.16
2023-03-14T10:35:41.148Z,96503.53
2023-03-14T10:37:55.484Z,96506.34
2023-03-14T10:40:06.972Z,96508.16
2023-03-14T10:42:23.144Z,96508.06
2023-03-14T10:44:29.921Z,96506.16
2023-03-14T10:46:37.094Z,96495.88
2023-03-14T10:49:00.897Z,96503.75
2023-03-14T10:51:12.551Z,96508.16
2023-03-14T10:53:21.061Z,96494.94
2023-03-14T10:55:29.490Z,96502.38
2023-03-14T10:57:34.443Z,96498.53
2023-03-14T10:59:42.932Z,96493.41
2023-03-14T11:01:57.719Z,96494.66
2023-03-14T11:04:11.409Z,96488.19
2023-03-14T11:06:22.165Z,96494.06
2023-03-14T11:08:35.727Z,96484.97
2023-03-14T11:10:47.539Z,96507.63
2023-03-14T11:13:08.193Z,96495.41
2023-03-14T11:15:23.605Z,96494.19
2023-03-14T11:17:38.489Z,96484.63
2023-03-14T11:20:02.019Z,96493.13
2023-03-14T11:22:17.950Z,96491.03
2023-03-14T11:24:43.002Z,96496.84
2023-03-14T11:26:59.289Z,96486.59
2023-03-14T11:29:23.470Z,96492.03
2023-03-14T11:31:31.670Z,96483.38
2023-03-14T11:33:42.292Z,96488.53
2023-03-14T11:35:54.543Z,96483.97
2023-03-14T11:38:14.175Z,96482.53
2023-03-14T11:40:24.068Z,96471.38
2023-03-14T11:42:32.705Z,96480.84
2023-03-14T11:44:42.245Z,96473.09
2023-03-14T11:46:54.105Z,96478.75
2023-03-14T11:49:07.913Z,96476.72
2023-03-14T11:51:20.864Z,96478.94
2023-03-14T11:53:40.405Z,96478.94
2023-03-14T11:55:47.018Z,96478.13
2023-03-14T11:57:55.786Z,96466.81
2023-03-14T12:00:07.119Z,96467.31
2023-03-14T12:02:26.470Z,96472.69
2023-03-14T12:04:57.853Z,96476.13
2023-03-14T12:07:11.739Z,96484.38
2023-03-14T12:09:19.308Z,96468.66
2023-03-14T12:11:35.949Z,96469.47
2023-03-14T12:13:49.077Z,96471.66
2023-03-14T12:16:00.089Z,96468.25
2023-03-14T12:18:05.102Z,96476.91
2023-03-14T12:20:22.399Z,96468.06
2023-03-14T12:22:32.455Z,96477.31
2023-03-14T12:24:42.061Z,96477.94
2023-03-14T12:26:58.046Z,96470.34
2023-03-14T12:29:20.769Z,96473.03
2023-03-14T12:31:45.084Z,96475.66
2023-03-14T12:34:04.503Z,96468.03
2023-03-14T12:36:58.882Z,96467.38
2023-03-14T12:39:17.790Z,96468.88
2023-03-14T12:41:28.703Z,96463.72
2023-03-14T12:43:38.184Z,96467.34
2023-03-14T12:46:06.038Z,96458.22
2023-03-14T12:48:21.302Z,96465.00
2023-03-14T12:50:35.117Z,96463.59
2023-03-14T12:52:58.030Z,96464.16
2023-03-14T12:55:11.568Z,96466.34
2023-03-14T12:57:32.120Z,96480.16
2023-03-14T12:59:39.067Z,96499.75
2023-03-14T13:02:00.016Z,96577.09
2023-03-14T13:04:13.706Z,96583.19
2023-03-14T13:06:55.530Z,96581.41
2023-03-14T13:09:01.597Z,96576.91
2023-03-14T13:11:11.995Z,96587.31
2023-03-14T13:13:25.050Z,96599.09
2023-03-14T13:15:37.873Z,96610.59
2023-03-14T13:17:46.940Z,96605.75
2023-03-14T13:19:56.598Z,96618.44
2023-03-14T13:22:08.139Z,96633.09
2023-03-14T13:24:27.069Z,96643.31
2023-03-14T13:26:39.593Z,96664.84
2023-03-14T13:28:45.600Z,96669.31
2023-03-14T13:30:53.214Z,96667.41
2023-03-14T13:33:00.733Z,96678.72
2023-03-14T13:35:05.892Z,96703.72
2023-03-14T13:37:20.426Z,96701.59
2023-03-14T13:39:29.398Z,96717.72
2023-03-14T13:41:34.727Z,96731.69
2023-03-14T13:43:44.726Z,96741.19
2023-03-14T13:45:59.606Z,96740.75
2023-03-14T13:48:08.108Z,96754.66
2023-03-14T13:50:20.524Z,96764.19
2023-03-14T13:52:33.153Z,96780.06
2023-03-14T13:54:38.050Z,96789.13
2023-03-14T13:56:43.054Z,96792.91
2023-03-14T13:58:48.017Z,96811.19
2023-03-14T14:01:10.006Z,96812.00
2023-03-14T14:03:17.612Z,96817.00
2023-03-14T14:05:23.150Z,96832.03
2023-03-14T14:07:29.086Z,96838.66
2023-03-14T14:09:41.378Z,96847.72
2023-03-14T14:12:07.581Z,96860.19
2023-03-14T14:14:22.226Z,96862.47
2023-03-14T14:16:31.038Z,96868.16
2023-03-14T14:18:39.279Z,96887.53
2023-03-14T14:20:48.710Z,96907.56
2023-03-14T14:22:54.801Z,96907.84
2023-03-14T14:25:00.087Z,96916.53
2023-03-14T14:27:14.140Z,96911.31
2023-03-14T14:29:30.316Z,96925.84
2023-03-14T14:31:35.854Z,96927.28
2023-03-14T14:33:48.936Z,96929.66
2023-03-14T14:36:00.239Z,96927.19
2023-03-14T14:38:06.529Z,96933.13
2023-03-14T14:40:20.122Z,96940.59
2023-03-14T14:42:29.865Z,96945.19
2023-03-14T14:44:38.331Z,96952.69
2023-03-14T14:46:43.860Z,96964.41
2023-03-14T14:48:54.881Z,96980.63
2023-03-14T14:51:03.643Z,97007.03
2023-03-14T14:53:27.318Z,97031.31
2023-03-14T14:55:37.106Z,97038.03
2023-03-14T14:57:51.522Z,97035.13
2023-03-14T14:59:59.980Z,97049.03
2023-03-14T15:02:06.607Z,97055.13
2023-03-14T15:04:18.443Z,97061.13
2023-03-14T15:06:24.920Z,97063.53
2023-03-14T15:08:31.043Z,97066.66
2023-03-14T15:10:36.034Z,97070.69
2023-03-14T15:12:41.122Z,97088.22
2023-03-14T15:14:46.281Z,97103.09
2023-03-14T15:16:51.231Z,97112.31
2023-03-14T15:18:59.500Z,97110.84
2023-03-14T15:21:07.439Z,97120.53
2023-03-14T15:23:15.116Z,97125.66
2023-03-14T15:25:43.428Z,97145.16
2023-03-14T15:27:46.254Z,97158.56
2023-03-14T15:29:51.565Z,97175.16
2023-03-14T15:31:57.086Z,97188.72
2023-03-14T15:34:02.043Z,97206.19
2023-03-14T15:36:26.845Z,97206.66
2023-03-14T15:38:32.362Z,97228.53
2023-03-14T15:40:37.836Z,97235.25
2023-03-14T15:42:43.335Z,97244.56
2023-03-14T15:44:48.740Z,97240.28
2023-03-14T15:46:53.908Z,97254.44
2023-03-14T15:48:58.908Z,97258.63
2023-03-14T15:51:03.846Z,97266.94
2023-03-14T15:53:11.383Z,97265.91
2023-03-14T15:55:16.657Z,97271.13
2023-03-14T15:57:21.717Z,97278.13
2023-03-14T15:59:27.778Z,97277.00
2023-03-14T16:01:32.731Z,97281.31
2023-03-14T16:03:37.778Z,97287.38
2023-03-14T16:05:43.172Z,97283.59
2023-03-14T16:07:48.444Z,97287.47
2023-03-14T16:09:56.196Z,97293.28
2023-03-14T16:12:01.124Z,97299.13
2023-03-14T16:14:06.586Z,97299.84
2023-03-14T16:16:13.312Z,97299.94
2023-03-14T16:18:21.898Z,97296.84
2023-03-14T16:20:31.282Z,97303.66
2023-03-14T16:22:40.821Z,97301.81
2023-03-14T16:24:45.745Z,97316.75
2023-03-14T16:26:53.237Z,97320.47
2023-03-14T16:28:58.173Z,97330.25
2023-03-14T16:31:04.518Z,97340.75
2023-03-14T16:33:12.401Z,97351.31
2023-03-14T16:35:18.021Z,97353.78
2023-03-14T16:37:23.387Z,97356.28
2023-03-14T16:39:28.995Z,97364.88
2023-03-14T16:41:35.292Z,97361.81
2023-03-14T16:43:43.424Z,97370.66
2023-03-14T16:45:48.334Z,97366.13
2023-03-14T16:47:53.379Z,97367.50
2023-03-14T16:49:58.352Z,97374.19
2023-03-14T16:52:03.541Z,97382.53
2023-03-14T16:54:08.647Z,97390.16
2023-03-14T16:56:14.080Z,97391.97
2023-03-14T16:58:21.251Z,97404.69
2023-03-14T17:00:29.301Z,97408.13
2023-03-14T17:02:34.221Z,97409.94
2023-03-14T17:04:39.121Z,97416.09
2023-03-14T17:06:45.450Z,97425.25
2023-03-14T17:08:50.388Z,97427.84
2023-03-14T17:10:55.276Z,97428.03
2023-03-14T17:13:00.152Z,97431.97
2023-03-14T17:15:05.083Z,97425.66
2023-03-14T17:17:15.363Z,97440.47
2023-03-14T17:19:20.316Z,97448.81
2023-03-14T17:21:26.690Z,97457.19
2023-03-14T17:23:34.195Z,97479.19
2023-03-14T17:25:39.599Z,97509.94
2023-03-14T17:27:46.126Z,97526.84
2023-03-14T17:29:51.537Z,97549.84
2023-03-14T17:31:56.431Z,97555.09
2023-03-14T17:34:03.917Z,97557.78
2023-03-14T17:36:11.290Z,97561.59
2023-03-14T17:38:16.233Z,97565.00
2023-03-14T17:40:22.014Z,97565.81
2023-03-14T17:42:26.889Z,97577.69
2023-03-14T17:44:32.176Z,97577.63
2023-03-14T17:46:37.104Z,97578.38
2023-03-14T17:48:42.427Z,97588.44
2023-03-14T17:50:51.723Z,97588.53
2023-03-14T17:52:58.021Z,97594.28
2023-03-14T17:55:03.032Z,97597.50
2023-03-14T17:57:08.474Z,97599.91
2023-03-14T17:59:14.398Z,97604.88
2023-03-14T18:01:22.029Z,97606.41
2023-03-14T18:03:27.548Z,97613.75
2023-03-14T18:05:32.443Z,97617.03
2023-03-14T18:07:42.110Z,97617.78
2023-03-14T18:09:47.200Z,97624.34
2023-03-14T18:12:05.264Z,97629.97
2023-03-14T18:14:16.376Z,97634.03
2023-03-14T18:16:21.892Z,97638.22
2023-03-14T18:18:27.575Z,97646.66
2023-03-14T18:20:32.619Z,97652.47
2023-03-14T18:22:40.777Z,97660.69
2023-03-14T18:24:45.796Z,97657.31
2023-03-14T18:26:51.232Z,97665.63
2023-03-14T18:28:57.860Z,97672.97
2023-03-14T18:31:09.575Z,97674.69
2023-03-14T18:33:14.501Z,97683.06
2023-03-14T18:35:19.940Z,97680.50
2023-03-14T18:37:25.199Z,97685.53
2023-03-14T18:39:33.165Z,97693.91
2023-03-14T18:41:40.051Z,97701.41
2023-03-14T18:43:46.249Z,97696.44
2023-03-14T18:45:51.135Z,97697.28
2023-03-14T18:47:56.017Z,97707.16
2023-03-14T18:50:01.125Z,97705.56
2023-03-14T18:52:07.499Z,97707.22
2023-03-14T18:54:14.326Z,97710.56
2023-03-14T18:56:22.278Z,97712.28
2023-03-14T18:58:28.700Z,97723.03
2023-03-14T19:00:34.585Z,97723.84
2023-03-14T19:02:39.802Z,97735.31
2023-03-14T19:04:45.501Z,97737.00
2023-03-14T19:06:50.431Z,97747.78
2023-03-14T19:08:55.329Z,97750.13
2023-03-14T19:11:02.044Z,97765.06
2023-03-14T19:13:09.693Z,97768.41
2023-03-14T19:15:14.872Z,97763.41
2023-03-14T19:17:19.762Z,97774.94
2023-03-14T19:19:24.768Z,97771.72
2023-03-14T19:21:32.374Z,97776.56
2023-03-14T19:23:40.276Z,97780.63
2023-03-14T19:25:45.231Z,97783.78
2023-03-14T19:27:50.385Z,97797.94
2023-03-14T19:29:57.991Z,97797.97
2023-03-14T19:32:02.959Z,97804.72
2023-03-14T19:34:07.917Z,97809.75
2023-03-14T19:36:25.003Z,97814.66
2023-03-14T19:38:29.895Z,97818.88
2023-03-14T19:40:34.816Z,97817.28
2023-03-14T19:42:39.700Z,97824.69
2023-03-14T19:44:44.594Z,97820.53
2023-03-14T19:46:52.177Z,97820.72
2023-03-14T19:48:57.057Z,97827.41
2023-03-14T19:51:03.661Z,97832.44
2023-03-14T19:53:09.679Z,97844.16
2023-03-14T19:55:15.377Z,97836.69
2023-03-14T19:57:21.181Z,97841.66
2023-03-14T19:59:26.185Z,97841.63
2023-03-14T20:01:31.965Z,97845.72
2023-03-14T20:03:39.957Z,97850.63
2023-03-14T20:05:45.542Z,97854.78
2023-03-14T20:07:51.926Z,97857.38
2023-03-14T20:09:57.115Z,97863.16
2023-03-14T20:12:02.421Z,97854.88
2023-03-14T20:14:07.438Z,97858.13
2023-03-14T20:16:13.461Z,97860.72
2023-03-14T20:18:18.408Z,97866.59
2023-03-14T20:20:27.386Z,97870.72
2023-03-14T20:22:36.362Z,97872.28
2023-03-14T20:24:41.249Z,97876.47
2023-03-14T20:26:46.642Z,97878.22
2023-03-14T20:28:51.540Z,97879.84
2023-03-14T20:30:56.562Z,97883.25
2023-03-14T20:33:04.775Z,97893.19
2023-03-14T20:35:11.662Z,97888.13
2023-03-14T20:37:19.144Z,97893.19
2023-03-14T20:39:24.616Z,97895.72
2023-03-14T20:41:30.282Z,97899.00
2023-03-14T20:43:35.821Z,97899.81
2023-03-14T20:45:40.721Z,97904.78
2023-03-14T20:47:45.751Z,97904.75
2023-03-14T20:49:50.679Z,97909.81
2023-03-14T20:51:56.135Z,97911.50
2023-03-14T20:54:03.680Z,97918.94
2023-03-14T20:56:10.448Z,97925.56
2023-03-14T20:58:15.971Z,97929.69
2023-03-14T21:00:22.904Z,97932.19
2023-03-14T21:02:27.900Z,97936.28
2023-03-14T21:04:32.927Z,97943.78
2023-03-14T21:06:37.917Z,97940.50
2023-03-14T21:08:43.771Z,97944.59
2023-03-14T21:10:54.362Z,97947.88
2023-03-14T21:12:59.313Z,97956.16
2023-03-14T21:15:04.228Z,97950.31
2023-03-14T21:17:09.176Z,97951.16
2023-03-14T21:19:14.710Z,97949.41
2023-03-14T21:21:19.545Z,97959.31
2023-03-14T21:23:26.447Z,97961.00
2023-03-14T21:25:32.240Z,97972.66
2023-03-14T21:27:42.258Z,97971.78
2023-03-14T21:29:47.112Z,97980.94
2023-03-14T21:31:52.913Z,97978.44
2023-03-14T21:33:57.802Z,97980.91
2023-03-14T21:36:02.733Z,97989.13
2023-03-14T21:38:07.956Z,97985.91
2023-03-14T21:40:15.590Z,97994.16
2023-03-14T21:42:20.748Z,97997.59
2023-03-14T21:44:28.298Z,98010.84
2023-03-14T21:46:36.502Z,98010.88
2023-03-14T21:48:42.175Z,98023.34
2023-03-14T21:50:49.000Z,98020.88
2023-03-14T21:52:57.193Z,98022.44
2023-03-14T21:55:03.662Z,98025.69
2023-03-14T21:57:09.517Z,98030.53
2023-03-14T21:59:15.391Z,98030.53
2023-03-14T22:01:22.852Z,98034.69
2023-03-14T22:03:28.053Z,98036.34
2023-03-14T22:05:32.964Z,98040.53
2023-03-14T22:07:37.811Z,98042.22
2023-03-14T22:09:44.692Z,98047.19
2023-03-14T22:11:49.838Z,98057.97
2023-03-14T22:13:55.316Z,98055.47
2023-03-14T22:16:00.253Z,98053.97
2023-03-14T22:18:08.173Z,98060.66
2023-03-14T22:20:15.773Z,98058.22
2023-03-14T22:22:20.665Z,98071.50
2023-03-14T22:24:25.656Z,98075.66
2023-03-14T22:26:30.610Z,98069.03
2023-03-14T22:28:36.257Z,98083.91
2023-03-14T22:30:41.213Z,98085.59
2023-03-14T22:32:46.449Z,98088.91
2023-03-14T22:34:53.887Z,98085.63
2023-03-14T22:36:58.742Z,98098.03
2023-03-14T22:39:03.621Z,98102.22
2023-03-14T22:41:08.523Z,98102.19
2023-03-14T22:43:14.227Z,98106.31
2023-03-14T22:45:19.361Z,98105.47
2023-03-14T22:47:24.372Z,98117.09
2023-03-14T22:49:29.350Z,98112.19
2023-03-14T22:51:36.897Z,98116.38
2023-03-14T22:53:41.902Z,98122.16
2023-03-14T22:55:47.004Z,98111.38
2023-03-14T22:57:55.187Z,98116.38
2023-03-14T23:00:00.027Z,98123.03
2023-03-14T23:02:04.923Z,98132.16
2023-03-14T23:04:09.810Z,98130.53
2023-03-14T23:06:14.686Z,98128.88
2023-03-14T23:08:22.722Z,98128.91
2023-03-14T23:10:28.082Z,98142.97
2023-03-14T23:12:33.827Z,98129.78
2023-03-14T23:14:39.405Z,98138.84
2023-03-14T23:16:47.369Z,98143.81
2023-03-14T23:18:53.199Z,98143.84
2023-03-14T23:21:12.712Z,98142.19
2023-03-14T23:23:17.774Z,98147.16
2023-03-14T23:25:26.009Z,98137.22
2023-03-14T23:27:31.292Z,98142.16
2023-03-14T23:29:36.404Z,98153.75
2023-03-14T23:31:41.935Z,98162.84
2023-03-14T23:33:47.891Z,98160.38
2023-03-14T23:35:54.481Z,98155.44
2023-03-14T23:37:59.342Z,98162.03
2023-03-14T23:40:06.409Z,98158.72
2023-03-14T23:42:14.401Z,98164.50
2023-03-14T23:44:20.360Z,98166.16
2023-03-14T23:46:25.326Z,98167.00
2023-03-14T23:48:34.619Z,98176.09
2023-03-14T23:50:39.517Z,98185.19
2023-03-14T23:52:44.385Z,98188.50
2023-03-14T23:54:50.244Z,98190.16
2023-03-14T23:56:55.148Z,98191.81
2023-03-14T23:59:03.191Z,98190.97
